Bellevue, Idaho
Current Conditions -  °F | °C
As of 6:47 AM on Saturday 20 Dec 2014 (Local Time) from KSUN Reporting Station
Light Snow Light Snow  
Wind Chill: 28°   Ceiling: 3500
Heat Index: 28°   Visibility: 5mi
Dew Point: 27°   Wind: 0mph
Humidity: 93%   Direction: NA
Pressure: 30.05"   Gusts: NA
Location:  43.46°N, 114.26°W
Report Text: KSUN 201347Z 00000KT 5SM -SN SCT015 SCT020 OVC035 M02/M03 A3005
Loading
Personal Weather Stations






























Interactive Weather Map New forecast layout! Learn more

10-Day Weather Forecast

Advertisements
Track Severe Weather on mobile